Archival Weather

King Khaled Intl

King Khaled Intl, Saudi Arabia (OERK)

Report from: Thursday, February 22, 2024 6:00 AM +03
Current time: Wednesday, April 24, 2024 11:06 PM +03

Current weather – Weather history – Daily summaries
Weather forecast

Temperature14.0°C (57.2°F)
Dew point2.0°C (35.6°F)
Winds 3 kts (1.5 m/s, 3.5 mph) East-Southeast (120°)
Clouds Sky clear
Altimeter30.18 in.Hg (1022 mB)
Relative humidity44 %
Density altitude-306 ft. (-93 m)
Remarks Ceiling and visibility OK
No significant changes expected in the next two hours
Flight conditions Visual Meteorological Conditions
Raw dataOERK 220300Z 12003KT CAVOK 14/02 Q1022 NOSIG
An error has occurred. This application may no longer respond until reloaded. Reload 🗙